West Clarksfield, Ohio
Current Conditions -  °F | °C
As of 4:53 PM on Monday 24 Nov 2014 (Local Time) from KLPR Reporting Station
Light Rain Light Rain  
Wind Chill: 34°   Ceiling: 3500
Heat Index: 44°   Visibility: 10mi
Dew Point: 34°   Wind: 31mph
Humidity: 68%   Direction: 250°WSW
Pressure: 29.58"   Gusts: 46mph
Location:  41.2376°N, 82.3866°W
Report Text: KLPR 242153Z AUTO 25027G40KT 10SM -RA OVC035 07/01 A2958 RMK AO2 PK WND 25047/2129 SLP019 P0000 T00670011 TSNO
Loading
Personal Weather Stations






























Interactive Weather Map New forecast layout! Learn more

10-Day Weather Forecast

Advertisements
Track Severe Weather on mobile